sensor_id;sensor_type;location;lat;lon;timestamp;P1;durP1;ratioP1;P2;durP2;ratioP2
39864;SDS011;25538;48.392;9.976;2022-12-10T00:00:40;52.95;;;33.58;;
39864;SDS011;25538;48.392;9.976;2022-12-10T00:03:06;48.00;;;33.67;;
39864;SDS011;25538;48.392;9.976;2022-12-10T00:05:33;45.80;;;31.90;;
39864;SDS011;25538;48.392;9.976;2022-12-10T00:07:59;47.50;;;31.25;;
39864;SDS011;25538;48.392;9.976;2022-12-10T00:10:25;49.20;;;32.10;;
39864;SDS011;25538;48.392;9.976;2022-12-10T00:12:51;43.93;;;30.93;;
39864;SDS011;25538;48.392;9.976;2022-12-10T00:15:17;43.07;;;31.77;;
39864;SDS011;25538;48.392;9.976;2022-12-10T00:17:43;40.60;;;30.90;;
39864;SDS011;25538;48.392;9.976;2022-12-10T00:20:09;43.27;;;30.63;;
39864;SDS011;25538;48.392;9.976;2022-12-10T00:22:35;42.80;;;30.27;;
39864;SDS011;25538;48.392;9.976;2022-12-10T00:25:01;40.87;;;30.63;;
39864;SDS011;25538;48.392;9.976;2022-12-10T00:27:27;49.85;;;31.55;;
39864;SDS011;25538;48.392;9.976;2022-12-10T00:29:53;49.17;;;31.23;;
39864;SDS011;25538;48.392;9.976;2022-12-10T00:32:19;46.23;;;28.30;;
39864;SDS011;25538;48.392;9.976;2022-12-10T00:34:45;42.13;;;30.23;;
39864;SDS011;25538;48.392;9.976;2022-12-10T00:37:10;44.67;;;30.13;;
39864;SDS011;25538;48.392;9.976;2022-12-10T00:39:36;54.28;;;32.47;;
39864;SDS011;25538;48.392;9.976;2022-12-10T00:42:02;41.50;;;28.77;;
39864;SDS011;25538;48.392;9.976;2022-12-10T00:44:28;44.83;;;30.77;;
39864;SDS011;25538;48.392;9.976;2022-12-10T00:46:54;48.30;;;32.53;;
39864;SDS011;25538;48.392;9.976;2022-12-10T00:49:20;40.70;;;29.83;;
39864;SDS011;25538;48.392;9.976;2022-12-10T00:51:48;43.55;;;30.35;;
39864;SDS011;25538;48.392;9.976;2022-12-10T00:54:14;41.60;;;28.77;;
39864;SDS011;25538;48.392;9.976;2022-12-10T00:56:40;42.67;;;28.60;;
39864;SDS011;25538;48.392;9.976;2022-12-10T00:59:06;41.08;;;29.40;;
39864;SDS011;25538;48.392;9.976;2022-12-10T01:04:01;42.45;;;31.30;;
39864;SDS011;25538;48.392;9.976;2022-12-10T01:06:30;45.25;;;32.38;;
39864;SDS011;25538;48.392;9.976;2022-12-10T01:09:02;44.92;;;31.08;;
39864;SDS011;25538;48.392;9.976;2022-12-10T01:11:31;49.45;;;31.50;;
39864;SDS011;25538;48.392;9.976;2022-12-10T01:13:58;42.17;;;30.27;;
39864;SDS011;25538;48.392;9.976;2022-12-10T01:16:25;34.03;;;26.90;;
39864;SDS011;25538;48.392;9.976;2022-12-10T01:18:55;40.42;;;27.38;;
39864;SDS011;25538;48.392;9.976;2022-12-10T01:21:22;37.85;;;28.95;;
39864;SDS011;25538;48.392;9.976;2022-12-10T01:23:49;39.55;;;28.65;;
39864;SDS011;25538;48.392;9.976;2022-12-10T01:26:18;44.97;;;29.75;;
39864;SDS011;25538;48.392;9.976;2022-12-10T01:28:49;39.85;;;28.85;;
39864;SDS011;25538;48.392;9.976;2022-12-10T01:31:17;42.30;;;28.75;;
39864;SDS011;25538;48.392;9.976;2022-12-10T01:33:46;35.90;;;28.77;;
39864;SDS011;25538;48.392;9.976;2022-12-10T01:36:13;36.05;;;27.13;;
39864;SDS011;25538;48.392;9.976;2022-12-10T01:38:41;33.40;;;27.02;;
39864;SDS011;25538;48.392;9.976;2022-12-10T01:41:07;38.20;;;28.02;;
39864;SDS011;25538;48.392;9.976;2022-12-10T01:46:19;35.92;;;27.02;;
39864;SDS011;25538;48.392;9.976;2022-12-10T01:48:46;31.77;;;26.63;;
39864;SDS011;25538;48.392;9.976;2022-12-10T01:51:13;35.60;;;27.70;;
39864;SDS011;25538;48.392;9.976;2022-12-10T01:53:41;34.80;;;25.30;;
39864;SDS011;25538;48.392;9.976;2022-12-10T01:56:09;38.30;;;29.95;;
39864;SDS011;25538;48.392;9.976;2022-12-10T01:58:36;37.10;;;27.33;;
39864;SDS011;25538;48.392;9.976;2022-12-10T02:01:07;36.80;;;27.80;;
39864;SDS011;25538;48.392;9.976;2022-12-10T02:03:51;39.00;;;28.35;;
39864;SDS011;25538;48.392;9.976;2022-12-10T02:12:16;37.65;;;26.13;;
39864;SDS011;25538;48.392;9.976;2022-12-10T02:15:05;34.05;;;27.90;;
39864;SDS011;25538;48.392;9.976;2022-12-10T02:17:39;39.05;;;27.30;;
39864;SDS011;25538;48.392;9.976;2022-12-10T02:23:20;36.42;;;26.35;;
39864;SDS011;25538;48.392;9.976;2022-12-10T02:25:43;38.65;;;27.25;;
39864;SDS011;25538;48.392;9.976;2022-12-10T02:28:36;38.08;;;28.95;;
39864;SDS011;25538;48.392;9.976;2022-12-10T02:31:22;37.17;;;27.60;;
39864;SDS011;25538;48.392;9.976;2022-12-10T02:33:53;37.10;;;27.35;;
39864;SDS011;25538;48.392;9.976;2022-12-10T02:36:24;32.40;;;27.05;;
39864;SDS011;25538;48.392;9.976;2022-12-10T02:38:57;35.20;;;27.42;;
39864;SDS011;25538;48.392;9.976;2022-12-10T02:41:28;30.35;;;25.63;;
39864;SDS011;25538;48.392;9.976;2022-12-10T02:43:58;36.25;;;27.77;;
39864;SDS011;25538;48.392;9.976;2022-12-10T02:46:26;38.95;;;28.63;;
39864;SDS011;25538;48.392;9.976;2022-12-10T02:48:56;35.55;;;27.08;;
39864;SDS011;25538;48.392;9.976;2022-12-10T02:51:25;34.78;;;27.40;;
39864;SDS011;25538;48.392;9.976;2022-12-10T02:54:04;32.35;;;26.33;;
39864;SDS011;25538;48.392;9.976;2022-12-10T02:59:28;31.95;;;26.02;;
39864;SDS011;25538;48.392;9.976;2022-12-10T03:07:16;38.17;;;28.85;;
39864;SDS011;25538;48.392;9.976;2022-12-10T03:09:50;38.70;;;28.05;;
39864;SDS011;25538;48.392;9.976;2022-12-10T03:12:22;41.65;;;28.05;;
39864;SDS011;25538;48.392;9.976;2022-12-10T03:14:57;35.88;;;26.73;;
39864;SDS011;25538;48.392;9.976;2022-12-10T03:17:25;35.75;;;25.42;;
39864;SDS011;25538;48.392;9.976;2022-12-10T03:19:54;38.63;;;27.75;;
39864;SDS011;25538;48.392;9.976;2022-12-10T03:22:22;38.75;;;29.92;;
39864;SDS011;25538;48.392;9.976;2022-12-10T03:24:48;30.80;;;26.37;;
39864;SDS011;25538;48.392;9.976;2022-12-10T03:27:15;33.88;;;27.30;;
39864;SDS011;25538;48.392;9.976;2022-12-10T03:29:45;37.97;;;28.20;;
39864;SDS011;25538;48.392;9.976;2022-12-10T03:32:20;39.15;;;29.25;;
39864;SDS011;25538;48.392;9.976;2022-12-10T03:34:48;36.75;;;28.58;;
39864;SDS011;25538;48.392;9.976;2022-12-10T03:37:16;36.88;;;27.77;;
39864;SDS011;25538;48.392;9.976;2022-12-10T03:39:43;40.35;;;29.33;;
39864;SDS011;25538;48.392;9.976;2022-12-10T03:42:09;36.87;;;27.73;;
39864;SDS011;25538;48.392;9.976;2022-12-10T03:44:36;31.50;;;25.92;;
39864;SDS011;25538;48.392;9.976;2022-12-10T03:47:04;31.67;;;26.65;;
39864;SDS011;25538;48.392;9.976;2022-12-10T03:49:33;34.72;;;26.05;;
39864;SDS011;25538;48.392;9.976;2022-12-10T03:51:59;34.75;;;26.90;;
39864;SDS011;25538;48.392;9.976;2022-12-10T03:54:26;36.25;;;29.30;;
39864;SDS011;25538;48.392;9.976;2022-12-10T03:56:52;31.43;;;25.80;;
39864;SDS011;25538;48.392;9.976;2022-12-10T03:59:18;34.80;;;26.80;;
39864;SDS011;25538;48.392;9.976;2022-12-10T04:01:44;35.20;;;25.20;;
39864;SDS011;25538;48.392;9.976;2022-12-10T04:04:10;37.30;;;29.30;;
39864;SDS011;25538;48.392;9.976;2022-12-10T04:06:39;33.55;;;27.33;;
39864;SDS011;25538;48.392;9.976;2022-12-10T04:09:05;35.50;;;27.73;;
39864;SDS011;25538;48.392;9.976;2022-12-10T04:11:32;34.05;;;26.73;;
39864;SDS011;25538;48.392;9.976;2022-12-10T04:13:58;32.23;;;26.10;;
39864;SDS011;25538;48.392;9.976;2022-12-10T04:16:42;33.60;;;26.02;;
39864;SDS011;25538;48.392;9.976;2022-12-10T04:19:09;34.83;;;26.20;;
39864;SDS011;25538;48.392;9.976;2022-12-10T04:21:38;33.97;;;27.38;;
39864;SDS011;25538;48.392;9.976;2022-12-10T04:24:25;36.55;;;31.80;;
39864;SDS011;25538;48.392;9.976;2022-12-10T04:27:16;31.77;;;24.85;;
39864;SDS011;25538;48.392;9.976;2022-12-10T04:29:45;31.85;;;26.08;;
39864;SDS011;25538;48.392;9.976;2022-12-10T04:32:11;33.80;;;26.77;;
39864;SDS011;25538;48.392;9.976;2022-12-10T04:34:37;31.10;;;25.88;;
39864;SDS011;25538;48.392;9.976;2022-12-10T04:37:03;35.10;;;27.03;;
39864;SDS011;25538;48.392;9.976;2022-12-10T04:39:29;33.72;;;27.45;;
39864;SDS011;25538;48.392;9.976;2022-12-10T04:41:55;28.35;;;23.60;;
39864;SDS011;25538;48.392;9.976;2022-12-10T04:44:22;35.72;;;26.58;;
39864;SDS011;25538;48.392;9.976;2022-12-10T04:46:48;29.33;;;24.00;;
39864;SDS011;25538;48.392;9.976;2022-12-10T04:49:14;32.35;;;25.83;;
39864;SDS011;25538;48.392;9.976;2022-12-10T04:51:40;33.03;;;27.95;;
39864;SDS011;25538;48.392;9.976;2022-12-10T04:54:06;33.40;;;25.63;;
39864;SDS011;25538;48.392;9.976;2022-12-10T04:56:33;30.25;;;25.10;;
39864;SDS011;25538;48.392;9.976;2022-12-10T04:59:00;30.95;;;24.58;;
39864;SDS011;25538;48.392;9.976;2022-12-10T05:01:26;33.00;;;25.90;;
39864;SDS011;25538;48.392;9.976;2022-12-10T05:03:53;29.55;;;23.92;;
39864;SDS011;25538;48.392;9.976;2022-12-10T05:06:19;30.70;;;26.20;;
39864;SDS011;25538;48.392;9.976;2022-12-10T05:08:46;33.67;;;26.13;;
39864;SDS011;25538;48.392;9.976;2022-12-10T05:13:39;30.85;;;24.92;;
39864;SDS011;25538;48.392;9.976;2022-12-10T05:16:06;30.65;;;24.95;;
39864;SDS011;25538;48.392;9.976;2022-12-10T05:18:34;33.55;;;26.63;;
39864;SDS011;25538;48.392;9.976;2022-12-10T05:21:01;31.50;;;25.60;;
39864;SDS011;25538;48.392;9.976;2022-12-10T05:23:28;32.65;;;26.10;;
39864;SDS011;25538;48.392;9.976;2022-12-10T05:28:26;29.33;;;24.77;;
39864;SDS011;25538;48.392;9.976;2022-12-10T05:30:53;30.73;;;25.25;;
39864;SDS011;25538;48.392;9.976;2022-12-10T05:33:18;32.40;;;26.83;;
39864;SDS011;25538;48.392;9.976;2022-12-10T05:35:51;31.48;;;26.05;;
39864;SDS011;25538;48.392;9.976;2022-12-10T05:38:18;30.90;;;24.48;;
39864;SDS011;25538;48.392;9.976;2022-12-10T05:40:44;30.52;;;26.25;;
39864;SDS011;25538;48.392;9.976;2022-12-10T05:43:11;28.42;;;24.23;;
39864;SDS011;25538;48.392;9.976;2022-12-10T05:45:36;29.87;;;24.00;;
39864;SDS011;25538;48.392;9.976;2022-12-10T05:48:02;32.20;;;26.27;;
39864;SDS011;25538;48.392;9.976;2022-12-10T05:50:30;37.80;;;27.35;;
39864;SDS011;25538;48.392;9.976;2022-12-10T05:52:56;30.25;;;24.50;;
39864;SDS011;25538;48.392;9.976;2022-12-10T05:55:22;32.43;;;26.07;;
39864;SDS011;25538;48.392;9.976;2022-12-10T05:57:49;28.45;;;25.08;;
39864;SDS011;25538;48.392;9.976;2022-12-10T06:00:15;29.97;;;24.87;;
39864;SDS011;25538;48.392;9.976;2022-12-10T06:02:41;27.93;;;24.40;;
39864;SDS011;25538;48.392;9.976;2022-12-10T06:05:07;31.83;;;25.00;;
39864;SDS011;25538;48.392;9.976;2022-12-10T06:07:33;30.45;;;24.80;;
39864;SDS011;25538;48.392;9.976;2022-12-10T06:09:59;33.13;;;25.90;;
39864;SDS011;25538;48.392;9.976;2022-12-10T06:12:25;29.63;;;23.10;;
39864;SDS011;25538;48.392;9.976;2022-12-10T06:14:51;31.65;;;25.02;;
39864;SDS011;25538;48.392;9.976;2022-12-10T06:17:16;32.23;;;26.10;;
39864;SDS011;25538;48.392;9.976;2022-12-10T06:19:42;32.53;;;25.90;;
39864;SDS011;25538;48.392;9.976;2022-12-10T06:22:08;29.17;;;26.03;;
39864;SDS011;25538;48.392;9.976;2022-12-10T06:24:34;27.47;;;23.30;;
39864;SDS011;25538;48.392;9.976;2022-12-10T06:27:00;30.07;;;25.87;;
39864;SDS011;25538;48.392;9.976;2022-12-10T06:29:26;30.70;;;24.20;;
39864;SDS011;25538;48.392;9.976;2022-12-10T06:31:52;28.93;;;23.00;;
39864;SDS011;25538;48.392;9.976;2022-12-10T06:34:17;30.67;;;25.70;;
39864;SDS011;25538;48.392;9.976;2022-12-10T06:36:43;33.00;;;25.97;;
39864;SDS011;25538;48.392;9.976;2022-12-10T06:39:09;33.10;;;26.37;;
39864;SDS011;25538;48.392;9.976;2022-12-10T06:41:35;29.70;;;25.33;;
39864;SDS011;25538;48.392;9.976;2022-12-10T06:44:01;32.57;;;25.07;;
39864;SDS011;25538;48.392;9.976;2022-12-10T06:46:27;31.90;;;25.40;;
39864;SDS011;25538;48.392;9.976;2022-12-10T06:48:53;30.33;;;24.25;;
39864;SDS011;25538;48.392;9.976;2022-12-10T06:51:19;29.08;;;24.98;;
39864;SDS011;25538;48.392;9.976;2022-12-10T06:53:45;28.90;;;23.43;;
39864;SDS011;25538;48.392;9.976;2022-12-10T06:56:15;31.70;;;24.02;;
39864;SDS011;25538;48.392;9.976;2022-12-10T06:58:43;27.92;;;24.00;;
39864;SDS011;25538;48.392;9.976;2022-12-10T07:01:19;28.85;;;25.48;;
39864;SDS011;25538;48.392;9.976;2022-12-10T07:03:50;29.10;;;24.23;;
39864;SDS011;25538;48.392;9.976;2022-12-10T07:06:17;31.15;;;24.10;;
39864;SDS011;25538;48.392;9.976;2022-12-10T07:08:44;28.42;;;24.02;;
39864;SDS011;25538;48.392;9.976;2022-12-10T07:11:10;32.20;;;25.92;;
39864;SDS011;25538;48.392;9.976;2022-12-10T07:13:38;31.00;;;25.15;;
39864;SDS011;25538;48.392;9.976;2022-12-10T07:16:14;28.65;;;23.83;;
39864;SDS011;25538;48.392;9.976;2022-12-10T07:18:42;33.15;;;25.35;;
39864;SDS011;25538;48.392;9.976;2022-12-10T07:21:16;28.83;;;25.17;;
39864;SDS011;25538;48.392;9.976;2022-12-10T07:23:46;28.48;;;23.85;;
39864;SDS011;25538;48.392;9.976;2022-12-10T07:26:13;28.83;;;23.65;;
39864;SDS011;25538;48.392;9.976;2022-12-10T07:28:39;29.67;;;24.48;;
39864;SDS011;25538;48.392;9.976;2022-12-10T07:31:06;26.70;;;23.48;;
39864;SDS011;25538;48.392;9.976;2022-12-10T07:33:33;28.58;;;24.27;;
39864;SDS011;25538;48.392;9.976;2022-12-10T07:36:04;27.88;;;22.48;;
39864;SDS011;25538;48.392;9.976;2022-12-10T07:38:31;27.88;;;23.45;;
39864;SDS011;25538;48.392;9.976;2022-12-10T07:40:57;27.60;;;22.90;;
39864;SDS011;25538;48.392;9.976;2022-12-10T07:43:23;31.33;;;24.90;;
39864;SDS011;25538;48.392;9.976;2022-12-10T07:45:49;30.70;;;23.87;;
39864;SDS011;25538;48.392;9.976;2022-12-10T07:48:15;29.40;;;23.77;;
39864;SDS011;25538;48.392;9.976;2022-12-10T07:50:40;32.53;;;25.43;;
39864;SDS011;25538;48.392;9.976;2022-12-10T07:53:06;31.80;;;23.87;;
39864;SDS011;25538;48.392;9.976;2022-12-10T07:55:32;29.30;;;24.03;;
39864;SDS011;25538;48.392;9.976;2022-12-10T07:57:58;29.67;;;22.77;;
39864;SDS011;25538;48.392;9.976;2022-12-10T08:00:24;29.63;;;22.43;;
39864;SDS011;25538;48.392;9.976;2022-12-10T08:02:50;24.87;;;22.27;;
39864;SDS011;25538;48.392;9.976;2022-12-10T08:05:15;30.03;;;23.20;;
39864;SDS011;25538;48.392;9.976;2022-12-10T08:07:42;28.45;;;23.25;;
39864;SDS011;25538;48.392;9.976;2022-12-10T08:10:08;28.40;;;23.33;;
39864;SDS011;25538;48.392;9.976;2022-12-10T08:12:33;33.70;;;23.27;;
39864;SDS011;25538;48.392;9.976;2022-12-10T08:14:59;27.80;;;23.33;;
39864;SDS011;25538;48.392;9.976;2022-12-10T08:17:27;31.02;;;24.45;;
39864;SDS011;25538;48.392;9.976;2022-12-10T08:19:53;28.17;;;24.05;;
39864;SDS011;25538;48.392;9.976;2022-12-10T08:22:20;28.75;;;22.90;;
39864;SDS011;25538;48.392;9.976;2022-12-10T08:24:46;28.45;;;24.02;;
39864;SDS011;25538;48.392;9.976;2022-12-10T08:27:12;28.43;;;24.30;;
39864;SDS011;25538;48.392;9.976;2022-12-10T08:29:38;30.37;;;24.23;;
39864;SDS011;25538;48.392;9.976;2022-12-10T08:32:04;27.77;;;22.17;;
39864;SDS011;25538;48.392;9.976;2022-12-10T08:34:29;28.63;;;23.77;;
39864;SDS011;25538;48.392;9.976;2022-12-10T08:36:55;27.17;;;22.60;;
39864;SDS011;25538;48.392;9.976;2022-12-10T08:39:21;27.17;;;21.60;;
39864;SDS011;25538;48.392;9.976;2022-12-10T08:41:47;24.90;;;22.20;;
39864;SDS011;25538;48.392;9.976;2022-12-10T08:44:13;26.60;;;21.73;;
39864;SDS011;25538;48.392;9.976;2022-12-10T08:46:39;26.27;;;21.48;;
39864;SDS011;25538;48.392;9.976;2022-12-10T08:49:05;30.97;;;22.73;;
39864;SDS011;25538;48.392;9.976;2022-12-10T08:51:34;26.25;;;22.40;;
39864;SDS011;25538;48.392;9.976;2022-12-10T08:54:01;25.00;;;21.38;;
39864;SDS011;25538;48.392;9.976;2022-12-10T08:56:27;25.48;;;22.70;;
39864;SDS011;25538;48.392;9.976;2022-12-10T08:58:53;29.87;;;24.00;;
39864;SDS011;25538;48.392;9.976;2022-12-10T09:01:19;25.73;;;21.60;;
39864;SDS011;25538;48.392;9.976;2022-12-10T09:03:45;24.43;;;20.23;;
39864;SDS011;25538;48.392;9.976;2022-12-10T09:06:13;24.55;;;21.20;;
39864;SDS011;25538;48.392;9.976;2022-12-10T09:08:41;23.25;;;20.50;;
39864;SDS011;25538;48.392;9.976;2022-12-10T09:11:09;23.27;;;20.13;;
39864;SDS011;25538;48.392;9.976;2022-12-10T09:13:40;27.98;;;23.42;;
39864;SDS011;25538;48.392;9.976;2022-12-10T09:16:06;27.80;;;24.67;;
39864;SDS011;25538;48.392;9.976;2022-12-10T09:18:32;24.63;;;22.13;;
39864;SDS011;25538;48.392;9.976;2022-12-10T09:20:58;23.70;;;19.50;;
39864;SDS011;25538;48.392;9.976;2022-12-10T09:23:24;23.30;;;18.03;;
39864;SDS011;25538;48.392;9.976;2022-12-10T09:25:50;22.43;;;18.90;;
39864;SDS011;25538;48.392;9.976;2022-12-10T09:28:16;25.33;;;20.75;;
39864;SDS011;25538;48.392;9.976;2022-12-10T09:30:42;22.40;;;18.80;;
39864;SDS011;25538;48.392;9.976;2022-12-10T09:33:08;20.67;;;18.47;;
39864;SDS011;25538;48.392;9.976;2022-12-10T09:35:33;21.60;;;19.07;;
39864;SDS011;25538;48.392;9.976;2022-12-10T09:37:59;20.50;;;18.40;;
39864;SDS011;25538;48.392;9.976;2022-12-10T09:40:37;22.30;;;19.33;;
39864;SDS011;25538;48.392;9.976;2022-12-10T09:48:38;21.65;;;18.67;;
39864;SDS011;25538;48.392;9.976;2022-12-10T09:51:21;22.40;;;18.20;;
39864;SDS011;25538;48.392;9.976;2022-12-10T09:53:59;21.60;;;18.30;;
39864;SDS011;25538;48.392;9.976;2022-12-10T09:56:34;20.50;;;17.25;;
39864;SDS011;25538;48.392;9.976;2022-12-10T09:59:13;21.02;;;18.10;;
39864;SDS011;25538;48.392;9.976;2022-12-10T10:01:44;21.17;;;18.65;;
39864;SDS011;25538;48.392;9.976;2022-12-10T10:04:11;22.50;;;17.77;;
39864;SDS011;25538;48.392;9.976;2022-12-10T10:06:37;18.83;;;16.03;;
39864;SDS011;25538;48.392;9.976;2022-12-10T10:09:05;20.58;;;16.67;;
39864;SDS011;25538;48.392;9.976;2022-12-10T10:11:35;18.40;;;15.82;;
39864;SDS011;25538;48.392;9.976;2022-12-10T10:14:04;18.27;;;16.38;;
39864;SDS011;25538;48.392;9.976;2022-12-10T10:16:47;17.33;;;15.13;;
39864;SDS011;25538;48.392;9.976;2022-12-10T10:19:18;17.38;;;15.10;;
39864;SDS011;25538;48.392;9.976;2022-12-10T10:21:50;18.40;;;15.90;;
39864;SDS011;25538;48.392;9.976;2022-12-10T10:24:18;17.65;;;15.27;;
39864;SDS011;25538;48.392;9.976;2022-12-10T10:26:47;19.70;;;16.10;;
39864;SDS011;25538;48.392;9.976;2022-12-10T10:29:16;20.10;;;17.25;;
39864;SDS011;25538;48.392;9.976;2022-12-10T10:31:44;16.95;;;14.95;;
39864;SDS011;25538;48.392;9.976;2022-12-10T10:34:14;16.17;;;14.52;;
39864;SDS011;25538;48.392;9.976;2022-12-10T10:36:43;16.88;;;14.98;;
39864;SDS011;25538;48.392;9.976;2022-12-10T10:41:41;18.60;;;15.15;;
39864;SDS011;25538;48.392;9.976;2022-12-10T10:44:15;21.23;;;16.27;;
39864;SDS011;25538;48.392;9.976;2022-12-10T10:46:44;18.58;;;15.07;;
39864;SDS011;25538;48.392;9.976;2022-12-10T10:49:31;18.20;;;14.93;;
39864;SDS011;25538;48.392;9.976;2022-12-10T10:51:59;17.23;;;15.43;;
39864;SDS011;25538;48.392;9.976;2022-12-10T10:54:40;19.50;;;15.57;;
39864;SDS011;25538;48.392;9.976;2022-12-10T10:57:12;19.90;;;16.40;;
39864;SDS011;25538;48.392;9.976;2022-12-10T10:59:49;22.75;;;18.10;;
39864;SDS011;25538;48.392;9.976;2022-12-10T11:02:29;20.77;;;16.95;;
39864;SDS011;25538;48.392;9.976;2022-12-10T11:05:01;17.45;;;15.60;;
39864;SDS011;25538;48.392;9.976;2022-12-10T11:07:33;19.15;;;15.35;;
39864;SDS011;25538;48.392;9.976;2022-12-10T11:10:14;16.92;;;15.13;;
39864;SDS011;25538;48.392;9.976;2022-12-10T11:12:59;16.73;;;14.90;;
39864;SDS011;25538;48.392;9.976;2022-12-10T11:15:32;16.20;;;14.60;;
39864;SDS011;25538;48.392;9.976;2022-12-10T11:18:00;16.63;;;14.82;;
39864;SDS011;25538;48.392;9.976;2022-12-10T11:20:29;17.90;;;15.38;;
39864;SDS011;25538;48.392;9.976;2022-12-10T11:22:57;16.25;;;14.15;;
39864;SDS011;25538;48.392;9.976;2022-12-10T11:30:42;14.73;;;13.23;;
39864;SDS011;25538;48.392;9.976;2022-12-10T11:41:31;15.35;;;13.77;;
39864;SDS011;25538;48.392;9.976;2022-12-10T11:46:42;14.93;;;13.53;;
39864;SDS011;25538;48.392;9.976;2022-12-10T11:52:18;16.60;;;14.85;;
39864;SDS011;25538;48.392;9.976;2022-12-10T12:00:23;24.45;;;18.85;;
39864;SDS011;25538;48.392;9.976;2022-12-10T12:19:32;20.90;;;18.60;;
39864;SDS011;25538;48.392;9.976;2022-12-10T12:22:13;19.48;;;17.48;;
39864;SDS011;25538;48.392;9.976;2022-12-10T12:25:05;20.10;;;18.00;;
39864;SDS011;25538;48.392;9.976;2022-12-10T12:27:45;21.50;;;18.85;;
39864;SDS011;25538;48.392;9.976;2022-12-10T12:30:20;22.48;;;18.83;;
39864;SDS011;25538;48.392;9.976;2022-12-10T12:35:47;22.10;;;19.70;;
39864;SDS011;25538;48.392;9.976;2022-12-10T12:41:02;25.38;;;20.45;;
39864;SDS011;25538;48.392;9.976;2022-12-10T12:46:00;22.50;;;20.10;;
39864;SDS011;25538;48.392;9.976;2022-12-10T12:48:51;27.08;;;20.80;;
39864;SDS011;25538;48.392;9.976;2022-12-10T12:51:39;24.35;;;21.75;;
39864;SDS011;25538;48.392;9.976;2022-12-10T12:54:11;22.77;;;19.65;;
39864;SDS011;25538;48.392;9.976;2022-12-10T13:05:03;22.05;;;19.70;;
39864;SDS011;25538;48.392;9.976;2022-12-10T13:07:30;23.42;;;19.83;;
39864;SDS011;25538;48.392;9.976;2022-12-10T13:12:46;20.45;;;18.35;;
39864;SDS011;25538;48.392;9.976;2022-12-10T13:20:31;23.40;;;19.77;;
39864;SDS011;25538;48.392;9.976;2022-12-10T13:33:53;22.20;;;19.63;;
39864;SDS011;25538;48.392;9.976;2022-12-10T13:39:32;23.85;;;20.20;;
39864;SDS011;25538;48.392;9.976;2022-12-10T13:47:43;22.85;;;20.00;;
39864;SDS011;25538;48.392;9.976;2022-12-10T13:53:07;22.60;;;19.60;;
39864;SDS011;25538;48.392;9.976;2022-12-10T14:01:02;24.97;;;17.90;;
39864;SDS011;25538;48.392;9.976;2022-12-10T14:04:05;21.98;;;18.63;;
39864;SDS011;25538;48.392;9.976;2022-12-10T14:06:46;21.58;;;18.90;;
39864;SDS011;25538;48.392;9.976;2022-12-10T14:09:18;24.63;;;18.75;;
39864;SDS011;25538;48.392;9.976;2022-12-10T14:12:00;18.50;;;16.60;;
39864;SDS011;25538;48.392;9.976;2022-12-10T14:14:38;21.58;;;19.27;;
39864;SDS011;25538;48.392;9.976;2022-12-10T14:17:12;21.25;;;18.58;;
39864;SDS011;25538;48.392;9.976;2022-12-10T14:19:41;22.20;;;19.55;;
39864;SDS011;25538;48.392;9.976;2022-12-10T14:22:17;22.50;;;19.73;;
39864;SDS011;25538;48.392;9.976;2022-12-10T14:24:55;22.75;;;19.80;;
39864;SDS011;25538;48.392;9.976;2022-12-10T14:27:26;23.40;;;19.77;;
39864;SDS011;25538;48.392;9.976;2022-12-10T14:29:58;22.05;;;19.88;;
39864;SDS011;25538;48.392;9.976;2022-12-10T14:32:44;24.33;;;20.35;;
39864;SDS011;25538;48.392;9.976;2022-12-10T14:35:19;22.77;;;18.90;;
39864;SDS011;25538;48.392;9.976;2022-12-10T14:37:47;22.15;;;19.85;;
39864;SDS011;25538;48.392;9.976;2022-12-10T14:40:19;24.23;;;20.95;;
39864;SDS011;25538;48.392;9.976;2022-12-10T14:42:50;24.70;;;21.13;;
39864;SDS011;25538;48.392;9.976;2022-12-10T14:45:20;24.35;;;21.75;;
39864;SDS011;25538;48.392;9.976;2022-12-10T14:47:46;26.50;;;22.53;;
39864;SDS011;25538;48.392;9.976;2022-12-10T14:50:14;27.35;;;21.95;;
39864;SDS011;25538;48.392;9.976;2022-12-10T14:52:42;24.75;;;20.70;;
39864;SDS011;25538;48.392;9.976;2022-12-10T14:55:14;24.77;;;20.83;;
39864;SDS011;25538;48.392;9.976;2022-12-10T14:57:43;25.35;;;22.00;;
39864;SDS011;25538;48.392;9.976;2022-12-10T15:00:14;26.15;;;21.80;;
39864;SDS011;25538;48.392;9.976;2022-12-10T15:02:44;25.67;;;22.17;;
39864;SDS011;25538;48.392;9.976;2022-12-10T15:05:13;26.20;;;22.25;;
39864;SDS011;25538;48.392;9.976;2022-12-10T15:07:47;26.42;;;23.50;;
39864;SDS011;25538;48.392;9.976;2022-12-10T15:10:18;25.40;;;20.38;;
39864;SDS011;25538;48.392;9.976;2022-12-10T15:12:49;27.75;;;23.27;;
39864;SDS011;25538;48.392;9.976;2022-12-10T15:15:19;26.33;;;22.33;;
39864;SDS011;25538;48.392;9.976;2022-12-10T15:17:53;25.55;;;22.80;;
39864;SDS011;25538;48.392;9.976;2022-12-10T15:20:26;27.38;;;23.13;;
39864;SDS011;25538;48.392;9.976;2022-12-10T15:22:54;27.45;;;23.25;;
39864;SDS011;25538;48.392;9.976;2022-12-10T15:25:31;29.45;;;25.05;;
39864;SDS011;25538;48.392;9.976;2022-12-10T15:30:55;28.45;;;23.50;;
39864;SDS011;25538;48.392;9.976;2022-12-10T15:33:45;28.20;;;23.77;;
39864;SDS011;25538;48.392;9.976;2022-12-10T15:36:34;30.55;;;23.85;;
39864;SDS011;25538;48.392;9.976;2022-12-10T15:41:55;31.75;;;25.02;;
39864;SDS011;25538;48.392;9.976;2022-12-10T15:47:09;33.22;;;25.45;;
39864;SDS011;25538;48.392;9.976;2022-12-10T15:49:47;30.58;;;24.50;;
39864;SDS011;25538;48.392;9.976;2022-12-10T15:52:15;29.48;;;24.65;;
39864;SDS011;25538;48.392;9.976;2022-12-10T15:54:46;29.75;;;25.15;;
39864;SDS011;25538;48.392;9.976;2022-12-10T15:59:46;30.35;;;25.67;;
39864;SDS011;25538;48.392;9.976;2022-12-10T16:04:57;35.47;;;26.02;;
39864;SDS011;25538;48.392;9.976;2022-12-10T16:07:23;27.67;;;24.77;;
39864;SDS011;25538;48.392;9.976;2022-12-10T16:09:48;28.80;;;25.23;;
39864;SDS011;25538;48.392;9.976;2022-12-10T16:12:15;33.47;;;23.80;;
39864;SDS011;25538;48.392;9.976;2022-12-10T16:14:47;28.90;;;23.90;;
39864;SDS011;25538;48.392;9.976;2022-12-10T16:17:21;26.85;;;22.73;;
39864;SDS011;25538;48.392;9.976;2022-12-10T16:19:47;28.27;;;22.60;;
39864;SDS011;25538;48.392;9.976;2022-12-10T16:22:13;25.70;;;22.08;;
39864;SDS011;25538;48.392;9.976;2022-12-10T16:24:39;28.93;;;24.73;;
39864;SDS011;25538;48.392;9.976;2022-12-10T16:27:15;32.20;;;25.30;;
39864;SDS011;25538;48.392;9.976;2022-12-10T16:29:41;37.10;;;27.65;;
39864;SDS011;25538;48.392;9.976;2022-12-10T16:32:11;35.55;;;28.40;;
39864;SDS011;25538;48.392;9.976;2022-12-10T16:34:39;31.50;;;26.65;;
39864;SDS011;25538;48.392;9.976;2022-12-10T16:37:05;33.60;;;26.25;;
39864;SDS011;25538;48.392;9.976;2022-12-10T16:39:32;33.45;;;25.90;;
39864;SDS011;25538;48.392;9.976;2022-12-10T16:41:57;29.52;;;23.83;;
39864;SDS011;25538;48.392;9.976;2022-12-10T16:44:25;30.60;;;26.93;;
39864;SDS011;25538;48.392;9.976;2022-12-10T16:46:51;35.85;;;28.58;;
39864;SDS011;25538;48.392;9.976;2022-12-10T16:49:17;39.00;;;30.80;;
39864;SDS011;25538;48.392;9.976;2022-12-10T16:51:42;43.70;;;31.27;;
39864;SDS011;25538;48.392;9.976;2022-12-10T16:54:09;44.15;;;33.25;;
39864;SDS011;25538;48.392;9.976;2022-12-10T16:56:36;40.58;;;30.00;;